METAR Data
IDs: Format: Raw Decoded Include TAF

Data at: 1339 UTC 16 Aug 2022

KWHP 160250Z 11007KT 10SM SKC 28/12 A2985 RMK OBSERVER PT.
KWHP 160150Z 10009G22KT 10SM SKC 32/07 A2983 RMK OBSERVER PT.
KWHP 160050Z 14008KT 10SM SKC 34/05 A2982 RMK OBSERVER PT.
KWHP 152350Z 12008G14KT 10SM SKC 34/08 A2983 RMK OBSERVER HT
KWHP 152250Z 14010KT 10SM SKC 34/07 A2983 RMK OBSERVER HT
KWHP 152150Z 12015G23KT 10SM SKC 35/07 A2985 RMK OBSERVER HT
KWHP 152050Z 12007KT 10SM SKC 34/08 A2987 RMK OBSERVER PT.
KWHP 151950Z 11008G18KT 10SM SKC 34/07 A2988 RMK OBSERVER PT.
KWHP 151855Z 09008KT 10SM SKC 34/12 A2989 RMK OBSERVER PT.
KWHP 151750Z 11008KT 10SM SKC 29/09 A2990 RMK OBSERVER HT
KWHP 151655Z 09006KT 10SM SKC 29/09 A2991 RMK OBSERVER HT
KWHP 151550Z 12006KT 10SM SKC 29/05 A2990 RMK OBSERVER HT
KWHP 151450Z 00000KT 10SM SKC 28/06 A2989 RMK OBSERVER HT
KWHP 150250Z 13004KT 10SM SKC 29/08 A2989 RMK OBSERVER PT.
KWHP 150150Z 10006KT 10SM SKC 33/08 A2989 RMK OBSERVER PT.